Suederoog — ZDHC8 — position and weather

sailwx.info

Track history (hours):
 
Tides and Currents Weather Stations Pressure Air Temp Water Temp Dewpoint Dewpoint Depression Visibility Wind Speed Wind Dir Waves Ship Positions

Suederoog

Last reported at 2015-Jan-31 15:25 UTC. Time now 2015-Feb-01 04:14 UTC.
Position N 59°54' E 030°14'.

Length 161 m; draft 10 m.

Type: Ship (hazmat cat A). MMSI: 236300000.

Date/timePositionNaut miles runAvg speedWind from/ knotsBaromVisibWave heightAir tempDewpointWater temp
2015-Jan-31 15:25N 59°54' E 030°14'0 0.0
2015-Jan-31 14:22N 59°54' E 030°14'0 0.0
2015-Jan-31 13:31N 59°54' E 030°14'0 0.0
2015-Jan-31 11:20N 59°54' E 030°14'0 0.4
2015-Jan-31 10:33N 59°53' E 030°13'1 0.8
2015-Jan-31 09:31N 59°53' E 030°12'0 0.0
2015-Jan-31 08:31N 59°53' E 030°12'0 0.0
2015-Jan-31 07:33N 59°53' E 030°12'0 0.0
2015-Jan-31 06:33N 59°53' E 030°12'0 0.0
2015-Jan-31 05:28N 59°53' E 030°12'0 0.0
2015-Jan-31 04:32N 59°53' E 030°12'0 0.0
2015-Jan-31 03:32N 59°53' E 030°12'0 0.0
2015-Jan-31 02:32N 59°53' E 030°12'0 0.0
2015-Jan-31 01:32N 59°53' E 030°12'0 0.0
2015-Jan-31 00:32N 59°53' E 030°12'0 0.0
2015-Jan-30 23:32N 59°53' E 030°12'0 0.0
2015-Jan-30 22:32N 59°53' E 030°12'0 0.0
2015-Jan-30 21:32N 59°53' E 030°12'0 0.0
2015-Jan-30 20:32N 59°53' E 030°12'0 0.0
2015-Jan-30 19:31N 59°53' E 030°12'0 0.0
2015-Jan-30 18:31N 59°53' E 030°12'0 0.0
2015-Jan-30 17:31N 59°53' E 030°12'0 0.0
2015-Jan-30 16:31N 59°53' E 030°12'0 0.0
2015-Jan-30 15:31N 59°53' E 030°12'0 0.1
2015-Jan-30 14:32N 59°53' E 030°12'9012.2
2015-Jan-30 07:10N 60°01' E 027°14'1016.0
2015-Jan-30 06:33N 59°58' E 026°55'1816.7
2015-Jan-30 05:27N 59°57' E 026°18'5017.0
2015-Jan-30 02:31N 59°45' E 024°42'1916.9
2015-Jan-30 01:25N 59°41' E 024°06'1517.1
2015-Jan-30 00:33N 59°36' E 023°38'37016.7
2015-Jan-29 02:22N 55°30' E 015°03'1616.9
2015-Jan-29 01:26N 55°23' E 014°39'1416.4
2015-Jan-29 00:33N 55°12' E 014°23'5116.6
2015-Jan-28 21:30N 54°49' E 013°04'1616.5
2015-Jan-28 20:32N 54°44' E 012°38'1916.0
2015-Jan-28 19:23N 54°31' E 012°15'1214.7
2015-Jan-28 18:34N 54°24' E 011°58'1716.5
2015-Jan-28 17:33N 54°29' E 011°31'1716.9
2015-Jan-28 16:33N 54°35' E 011°04'1413.6
2015-Jan-28 15:31N 54°46' E 010°48'11714.7
2015-Jan-28 07:33N 56°39' E 011°44'1515.0
2015-Jan-28 06:33N 56°54' E 011°46'1616.5
2015-Jan-28 05:33N 57°09' E 011°36'1716.8
2015-Jan-28 04:33N 57°25' E 011°25'1716.6
2015-Jan-28 03:33N 57°37' E 011°04'1817.4
2015-Jan-28 02:32N 57°47' E 010°36'17615.8
2015-Jan-27 15:24N 55°34' E 007°06'1315.4
2015-Jan-27 14:33N 55°21' E 007°06'1615.6
2015-Jan-27 13:33N 55°06' E 007°06'1615.6
2015-Jan-27 12:33N 54°50' E 007°06'1515.0
2015-Jan-27 11:32N 54°35' E 007°09'1615.8
2015-Jan-27 10:33N 54°22' E 007°22'1616.1
2015-Jan-27 09:33N 54°09' E 007°40'1717.1
2015-Jan-27 08:33N 54°02' E 008°06'1515.1
2015-Jan-27 07:33N 53°58' E 008°31'1413.8
2015-Jan-27 06:33N 53°50' E 008°50'1312.9
2015-Jan-27 05:33N 53°53' E 009°11'9 9.0
2015-Jan-27 04:33N 53°47' E 009°23'1212.2
2015-Jan-27 03:34N 53°37' E 009°34'1110.9
2015-Jan-27 02:34N 53°33' E 009°51'2 2.1
2015-Jan-27 01:28N 53°32' E 009°55'0 0.0
2015-Jan-27 00:28N 53°32' E 009°55'0 0.0
2015-Jan-26 23:31N 53°32' E 009°55'0 0.0
2015-Jan-26 22:31N 53°32' E 009°55'0 0.0
2015-Jan-26 21:28N 53°32' E 009°55'0 0.0
2015-Jan-26 20:31N 53°32' E 009°55'0 0.0
2015-Jan-26 19:31N 53°32' E 009°55'0 0.0
2015-Jan-26 18:31N 53°32' E 009°55'0 0.0
2015-Jan-26 17:33N 53°32' E 009°55'0 0.0
2015-Jan-26 16:28N 53°32' E 009°55'0 0.0
2015-Jan-26 15:32N 53°32' E 009°55'0 0.0
2015-Jan-26 14:34N 53°32' E 009°55'1 1.3
2015-Jan-26 13:30N 53°32' E 009°57'0 0.0
2015-Jan-26 12:31N 53°32' E 009°57'0 0.0
2015-Jan-26 11:30N 53°32' E 009°57'0 0.0
2015-Jan-26 10:25N 53°32' E 009°57'0 0.0
2015-Jan-26 09:31N 53°32' E 009°57'0 0.0
2015-Jan-26 08:31N 53°32' E 009°57'0 0.0
2015-Jan-26 07:33N 53°32' E 009°57'0 0.0
2015-Jan-26 06:33N 53°32' E 009°57'0 0.0
2015-Jan-26 05:33N 53°32' E 009°57'0 0.0
2015-Jan-26 04:33N 53°32' E 009°57'0 0.0
2015-Jan-26 03:33N 53°32' E 009°57'0 0.0
2015-Jan-26 02:33N 53°32' E 009°57'0 0.0
2015-Jan-26 01:33N 53°32' E 009°57'0 0.0
2015-Jan-26 00:33N 53°32' E 009°57'0 0.0
2015-Jan-25 23:33N 53°32' E 009°57'0 0.0
2015-Jan-25 22:33N 53°32' E 009°57'0 0.0
2015-Jan-25 21:33N 53°32' E 009°57'0 0.0
2015-Jan-25 20:33N 53°32' E 009°57'0 0.0
2015-Jan-25 19:33N 53°32' E 009°57'0 0.0
2015-Jan-25 18:33N 53°32' E 009°57'0 0.0
2015-Jan-25 17:33N 53°32' E 009°57'0 0.0
2015-Jan-25 16:31N 53°32' E 009°57'0 0.0
2015-Jan-25 15:31N 53°32' E 009°57'0 0.0
2015-Jan-25 14:25N 53°32' E 009°57'0 0.0
2015-Jan-25 13:32N 53°32' E 009°57'4 4.2
2015-Jan-25 12:33N 53°33' E 009°50'1211.5
2015-Jan-25 11:33N 53°37' E 009°32'1312.6
2015-Jan-25 10:34N 53°49' E 009°22'10 9.5
2015-Jan-25 09:33N 53°54' E 009°09'1 0.6
2015-Jan-25 08:34N 53°54' E 009°09'4 4.1
2015-Jan-25 07:33N 53°57' E 009°14'6 6.2
2015-Jan-25 06:33N 54°03' E 009°18'6 6.5
2015-Jan-25 05:33N 54°09' E 009°22'5 4.8
2015-Jan-25 04:33N 54°11' E 009°29'3 2.8
2015-Jan-25 03:32N 54°12' E 009°34'4 3.5
2015-Jan-25 02:32N 54°15' E 009°37'6 6.4
2015-Jan-25 01:33N 54°20' E 009°44'5 4.7
2015-Jan-25 00:33N 54°22' E 009°51'5 5.5
2015-Jan-24 23:33N 54°21' E 010°00'4 3.5
2015-Jan-24 22:33N 54°22' E 010°06'1 1.4
2015-Jan-24 21:33N 54°22' E 010°09'8 8.4
2015-Jan-24 20:33N 54°29' E 010°16'5 5.0
2015-Jan-24 19:32N 54°32' E 010°23'0 0.0
2015-Jan-24 18:32N 54°32' E 010°23'2 1.9
2015-Jan-24 17:33N 54°33' E 010°26'7 7.0
2015-Jan-24 16:33N 54°34' E 010°38'6 5.9
2015-Jan-24 15:33N 54°35' E 010°48'8 7.6
2015-Jan-24 14:33N 54°36' E 011°01'1313.2
2015-Jan-24 13:33N 54°32' E 011°23'1717.2
2015-Jan-24 12:34N 54°26' E 011°51'1414.4
2015-Jan-24 11:33N 54°32' E 012°14'1413.5
2015-Jan-24 10:33N 54°42' E 012°30'1111.1
2015-Jan-24 09:33N 54°47' E 012°46'1111.0
2015-Jan-24 08:32N 54°51' E 013°04'1411.0
2015-Jan-24 07:17N 54°56' E 013°27'811.3
2015-Jan-24 06:33N 54°59' E 013°40'1210.7
2015-Jan-24 05:28N 55°03' E 013°59'910.1
2015-Jan-24 04:33N 55°09' E 014°11'1010.4
2015-Jan-24 03:33N 55°17' E 014°22'1111.1
2015-Jan-24 02:33N 55°26' E 014°35'1111.0
2015-Jan-24 01:33N 55°32' E 014°52'37415.3
2015-Jan-23 01:04N 59°40' E 023°34'917.5
2015-Jan-23 00:32N 59°42' E 023°52'1717.5
2015-Jan-22 23:33N 59°47' E 024°25'1817.5
2015-Jan-22 22:33N 59°50' E 024°59'4217.0
2015-Jan-22 20:05N 60°06' E 026°17'917.3
2015-Jan-22 19:33N 60°14' E 026°25'1615.7
2015-Jan-22 18:34N 60°24' E 026°50'3 3.1
2015-Jan-22 17:32N 60°25' E 026°55'0 0.0
2015-Jan-22 16:32N 60°25' E 026°55'0 0.0
2015-Jan-22 15:32N 60°25' E 026°55'0 0.0
2015-Jan-22 14:32N 60°25' E 026°55'0 0.0
2015-Jan-22 13:32N 60°25' E 026°55'0 0.0
2015-Jan-22 12:32N 60°25' E 026°55'0 0.0
2015-Jan-22 11:32N 60°25' E 026°55'0 0.0
2015-Jan-22 10:32N 60°25' E 026°55'0 0.0
2015-Jan-22 09:32N 60°25' E 026°55'0 0.0
2015-Jan-22 08:33N 60°25' E 026°55'0 0.0
2015-Jan-22 07:33N 60°25' E 026°55'0 0.0
2015-Jan-22 06:33N 60°25' E 026°55'0 0.0
2015-Jan-22 05:31N 60°25' E 026°55'0 0.0
2015-Jan-22 04:31N 60°25' E 026°55'0 0.0
2015-Jan-22 03:31N 60°25' E 026°55'0 0.0
2015-Jan-22 02:31N 60°25' E 026°55'0 0.0
2015-Jan-22 01:31N 60°25' E 026°55'0 0.0
2015-Jan-22 00:31N 60°25' E 026°55'0 0.0
2015-Jan-21 23:31N 60°25' E 026°55'0 0.4
2015-Jan-21 22:50N 60°25' E 026°55'0 3.5
2015-Jan-21 22:46N 60°25' E 026°55'2 7.1
2015-Jan-21 22:33N 60°24' E 026°52'1514.9
2015-Jan-21 21:33N 60°16' E 026°28'7 6.7
2015-Jan-21 20:33N 60°09' E 026°25'9 9.4
2015-Jan-21 19:33N 60°03' E 026°40'  
Track history (hours):
 
Tides and Currents Weather Stations Pressure Air Temp Water Temp Dewpoint Dewpoint Depression Visibility Wind Speed Wind Dir Waves Ship Positions

Suederoog

Last reported at 2015-Jan-31 15:25 UTC. Time now 2015-Feb-01 04:14 UTC.
Position N 59°54' E 030°14'.

Length 161 m; draft 10 m.

Type: Ship (hazmat cat A). MMSI: 236300000.

Date/timePositionNaut miles runAvg speedWind from/ knotsBaromVisibWave heightAir tempDewpointWater temp
2015-Jan-31 15:25N 59°54' E 030°14'0 0.0
2015-Jan-31 14:22N 59°54' E 030°14'0 0.0
2015-Jan-31 13:31N 59°54' E 030°14'0 0.0
2015-Jan-31 11:20N 59°54' E 030°14'0 0.4
2015-Jan-31 10:33N 59°53' E 030°13'1 0.8
2015-Jan-31 09:31N 59°53' E 030°12'0 0.0
2015-Jan-31 08:31N 59°53' E 030°12'0 0.0
2015-Jan-31 07:33N 59°53' E 030°12'0 0.0
2015-Jan-31 06:33N 59°53' E 030°12'0 0.0
2015-Jan-31 05:28N 59°53' E 030°12'0 0.0
2015-Jan-31 04:32N 59°53' E 030°12'0 0.0
2015-Jan-31 03:32N 59°53' E 030°12'0 0.0
2015-Jan-31 02:32N 59°53' E 030°12'0 0.0
2015-Jan-31 01:32N 59°53' E 030°12'0 0.0
2015-Jan-31 00:32N 59°53' E 030°12'0 0.0
2015-Jan-30 23:32N 59°53' E 030°12'0 0.0
2015-Jan-30 22:32N 59°53' E 030°12'0 0.0
2015-Jan-30 21:32N 59°53' E 030°12'0 0.0
2015-Jan-30 20:32N 59°53' E 030°12'0 0.0
2015-Jan-30 19:31N 59°53' E 030°12'0 0.0
2015-Jan-30 18:31N 59°53' E 030°12'0 0.0
2015-Jan-30 17:31N 59°53' E 030°12'0 0.0
2015-Jan-30 16:31N 59°53' E 030°12'0 0.0
2015-Jan-30 15:31N 59°53' E 030°12'0 0.1
2015-Jan-30 14:32N 59°53' E 030°12'9012.2
2015-Jan-30 07:10N 60°01' E 027°14'1016.0
2015-Jan-30 06:33N 59°58' E 026°55'1816.7
2015-Jan-30 05:27N 59°57' E 026°18'5017.0
2015-Jan-30 02:31N 59°45' E 024°42'1916.9
2015-Jan-30 01:25N 59°41' E 024°06'1517.1
2015-Jan-30 00:33N 59°36' E 023°38'37016.7
2015-Jan-29 02:22N 55°30' E 015°03'1616.9
2015-Jan-29 01:26N 55°23' E 014°39'1416.4
2015-Jan-29 00:33N 55°12' E 014°23'5116.6
2015-Jan-28 21:30N 54°49' E 013°04'1616.5
2015-Jan-28 20:32N 54°44' E 012°38'1916.0
2015-Jan-28 19:23N 54°31' E 012°15'1214.7
2015-Jan-28 18:34N 54°24' E 011°58'1716.5
2015-Jan-28 17:33N 54°29' E 011°31'1716.9
2015-Jan-28 16:33N 54°35' E 011°04'1413.6
2015-Jan-28 15:31N 54°46' E 010°48'11714.7
2015-Jan-28 07:33N 56°39' E 011°44'1515.0
2015-Jan-28 06:33N 56°54' E 011°46'1616.5
2015-Jan-28 05:33N 57°09' E 011°36'1716.8
2015-Jan-28 04:33N 57°25' E 011°25'1716.6
2015-Jan-28 03:33N 57°37' E 011°04'1817.4
2015-Jan-28 02:32N 57°47' E 010°36'17615.8
2015-Jan-27 15:24N 55°34' E 007°06'1315.4
2015-Jan-27 14:33N 55°21' E 007°06'1615.6
2015-Jan-27 13:33N 55°06' E 007°06'1615.6
2015-Jan-27 12:33N 54°50' E 007°06'1515.0
2015-Jan-27 11:32N 54°35' E 007°09'1615.8
2015-Jan-27 10:33N 54°22' E 007°22'1616.1
2015-Jan-27 09:33N 54°09' E 007°40'1717.1
2015-Jan-27 08:33N 54°02' E 008°06'1515.1
2015-Jan-27 07:33N 53°58' E 008°31'1413.8
2015-Jan-27 06:33N 53°50' E 008°50'1312.9
2015-Jan-27 05:33N 53°53' E 009°11'9 9.0
2015-Jan-27 04:33N 53°47' E 009°23'1212.2
2015-Jan-27 03:34N 53°37' E 009°34'1110.9
2015-Jan-27 02:34N 53°33' E 009°51'2 2.1
2015-Jan-27 01:28N 53°32' E 009°55'0 0.0
2015-Jan-27 00:28N 53°32' E 009°55'0 0.0
2015-Jan-26 23:31N 53°32' E 009°55'0 0.0
2015-Jan-26 22:31N 53°32' E 009°55'0 0.0
2015-Jan-26 21:28N 53°32' E 009°55'0 0.0
2015-Jan-26 20:31N 53°32' E 009°55'0 0.0
2015-Jan-26 19:31N 53°32' E 009°55'0 0.0
2015-Jan-26 18:31N 53°32' E 009°55'0 0.0
2015-Jan-26 17:33N 53°32' E 009°55'0 0.0
2015-Jan-26 16:28N 53°32' E 009°55'0 0.0
2015-Jan-26 15:32N 53°32' E 009°55'0 0.0
2015-Jan-26 14:34N 53°32' E 009°55'1 1.3
2015-Jan-26 13:30N 53°32' E 009°57'0 0.0
2015-Jan-26 12:31N 53°32' E 009°57'0 0.0
2015-Jan-26 11:30N 53°32' E 009°57'0 0.0
2015-Jan-26 10:25N 53°32' E 009°57'0 0.0
2015-Jan-26 09:31N 53°32' E 009°57'0 0.0
2015-Jan-26 08:31N 53°32' E 009°57'0 0.0
2015-Jan-26 07:33N 53°32' E 009°57'0 0.0
2015-Jan-26 06:33N 53°32' E 009°57'0 0.0
2015-Jan-26 05:33N 53°32' E 009°57'0 0.0
2015-Jan-26 04:33N 53°32' E 009°57'0 0.0
2015-Jan-26 03:33N 53°32' E 009°57'0 0.0
2015-Jan-26 02:33N 53°32' E 009°57'0 0.0
2015-Jan-26 01:33N 53°32' E 009°57'0 0.0
2015-Jan-26 00:33N 53°32' E 009°57'0 0.0
2015-Jan-25 23:33N 53°32' E 009°57'0 0.0
2015-Jan-25 22:33N 53°32' E 009°57'0 0.0
2015-Jan-25 21:33N 53°32' E 009°57'0 0.0
2015-Jan-25 20:33N 53°32' E 009°57'0 0.0
2015-Jan-25 19:33N 53°32' E 009°57'0 0.0
2015-Jan-25 18:33N 53°32' E 009°57'0 0.0
2015-Jan-25 17:33N 53°32' E 009°57'0 0.0
2015-Jan-25 16:31N 53°32' E 009°57'0 0.0
2015-Jan-25 15:31N 53°32' E 009°57'0 0.0
2015-Jan-25 14:25N 53°32' E 009°57'0 0.0
2015-Jan-25 13:32N 53°32' E 009°57'4 4.2
2015-Jan-25 12:33N 53°33' E 009°50'1211.5
2015-Jan-25 11:33N 53°37' E 009°32'1312.6
2015-Jan-25 10:34N 53°49' E 009°22'10 9.5
2015-Jan-25 09:33N 53°54' E 009°09'1 0.6
2015-Jan-25 08:34N 53°54' E 009°09'4 4.1
2015-Jan-25 07:33N 53°57' E 009°14'6 6.2
2015-Jan-25 06:33N 54°03' E 009°18'6 6.5
2015-Jan-25 05:33N 54°09' E 009°22'5 4.8
2015-Jan-25 04:33N 54°11' E 009°29'3 2.8
2015-Jan-25 03:32N 54°12' E 009°34'4 3.5
2015-Jan-25 02:32N 54°15' E 009°37'6 6.4
2015-Jan-25 01:33N 54°20' E 009°44'5 4.7
2015-Jan-25 00:33N 54°22' E 009°51'5 5.5
2015-Jan-24 23:33N 54°21' E 010°00'4 3.5
2015-Jan-24 22:33N 54°22' E 010°06'1 1.4
2015-Jan-24 21:33N 54°22' E 010°09'8 8.4
2015-Jan-24 20:33N 54°29' E 010°16'5 5.0
2015-Jan-24 19:32N 54°32' E 010°23'0 0.0
2015-Jan-24 18:32N 54°32' E 010°23'2 1.9
2015-Jan-24 17:33N 54°33' E 010°26'7 7.0
2015-Jan-24 16:33N 54°34' E 010°38'6 5.9
2015-Jan-24 15:33N 54°35' E 010°48'8 7.6
2015-Jan-24 14:33N 54°36' E 011°01'1313.2
2015-Jan-24 13:33N 54°32' E 011°23'1717.2
2015-Jan-24 12:34N 54°26' E 011°51'1414.4
2015-Jan-24 11:33N 54°32' E 012°14'1413.5
2015-Jan-24 10:33N 54°42' E 012°30'1111.1
2015-Jan-24 09:33N 54°47' E 012°46'1111.0
2015-Jan-24 08:32N 54°51' E 013°04'1411.0
2015-Jan-24 07:17N 54°56' E 013°27'811.3
2015-Jan-24 06:33N 54°59' E 013°40'1210.7
2015-Jan-24 05:28N 55°03' E 013°59'910.1
2015-Jan-24 04:33N 55°09' E 014°11'1010.4
2015-Jan-24 03:33N 55°17' E 014°22'1111.1
2015-Jan-24 02:33N 55°26' E 014°35'1111.0
2015-Jan-24 01:33N 55°32' E 014°52'37415.3
2015-Jan-23 01:04N 59°40' E 023°34'917.5
2015-Jan-23 00:32N 59°42' E 023°52'1717.5
2015-Jan-22 23:33N 59°47' E 024°25'1817.5
2015-Jan-22 22:33N 59°50' E 024°59'4217.0
2015-Jan-22 20:05N 60°06' E 026°17'917.3
2015-Jan-22 19:33N 60°14' E 026°25'1615.7
2015-Jan-22 18:34N 60°24' E 026°50'3 3.1
2015-Jan-22 17:32N 60°25' E 026°55'0 0.0
2015-Jan-22 16:32N 60°25' E 026°55'0 0.0
2015-Jan-22 15:32N 60°25' E 026°55'0 0.0
2015-Jan-22 14:32N 60°25' E 026°55'0 0.0
2015-Jan-22 13:32N 60°25' E 026°55'0 0.0
2015-Jan-22 12:32N 60°25' E 026°55'0 0.0
2015-Jan-22 11:32N 60°25' E 026°55'0 0.0
2015-Jan-22 10:32N 60°25' E 026°55'0 0.0
2015-Jan-22 09:32N 60°25' E 026°55'0 0.0
2015-Jan-22 08:33N 60°25' E 026°55'0 0.0
2015-Jan-22 07:33N 60°25' E 026°55'0 0.0
2015-Jan-22 06:33N 60°25' E 026°55'0 0.0
2015-Jan-22 05:31N 60°25' E 026°55'0 0.0
2015-Jan-22 04:31N 60°25' E 026°55'0 0.0
2015-Jan-22 03:31N 60°25' E 026°55'0 0.0
2015-Jan-22 02:31N 60°25' E 026°55'0 0.0
2015-Jan-22 01:31N 60°25' E 026°55'0 0.0
2015-Jan-22 00:31N 60°25' E 026°55'0 0.0
2015-Jan-21 23:31N 60°25' E 026°55'0 0.4
2015-Jan-21 22:50N 60°25' E 026°55'0 3.5
2015-Jan-21 22:46N 60°25' E 026°55'2 7.1
2015-Jan-21 22:33N 60°24' E 026°52'1514.9
2015-Jan-21 21:33N 60°16' E 026°28'7 6.7
2015-Jan-21 20:33N 60°09' E 026°25'9 9.4
2015-Jan-21 19:33N 60°03' E 026°40'  

Dump ship's entire track history